x

Columbia River Bar - 20nm West Of Columbia River Mouth (46029) Wave Buoy

6:50 - Thu 28th Jul 2016 All times are PDT. -7 hours from GMT.

  • Sig Wave height 5.9ft
  • Swell Direction
  • Peak Period 8s
  • Average Period 5s
  • Wind
    18mph, 20mph gusts
  • Sea Temp 60°f
  • Air Temp 59°f
  • Sea Pressure 1021.3mb
  • Columbia River Bar - 20nm West Of Columbia River Mouth
  • Columbia River Bar - 20nm West Of Columbia River Mouth

More Historic Weather Station data

Upgrade to MSW Pro to gain access to the past 30 days of data for over 8000 Wavebouys and Weather Stations around the globe.

Join Pro

Comparision Forecast

View Surf forecast
   
jeu. 07/28 6:50 6ft 8s 5s 18 20 mph 1021.3mb 60f 59f
5:50 6ft 6s 5s 18 22 mph 1021.1mb 60f 59f
4:50 5.5ft 7s 5s 18 22 mph 1021.1mb 60f 60f
3:50 6ft 8s 5s 20 25 mph 1021.2mb 60f 60f
2:50 5.5ft 8s 5s 20 27 mph 1020.8mb 61f 60f
1:50 5.5ft 8s 5s 18 22 mph 1021.1mb 61f 60f
12:50 6ft 7s 5s 18 20 mph 1021.3mb 61f 61f
mer. 07/27 11:50 6ft 8s 5s 20 25 mph 1021.5mb 61f 61f
10:50 6.5ft 8s 6s 18 22 mph 1021.7mb 61f 61f
9:50 6ft 8s 5s 20 25 mph 1021.2mb 61f 61f
8:50 7ft 8s 6s 20 25 mph 1020.8mb 61f 61f
7:50 6ft 8s 5s 18 22 mph 1020.7mb 61f 61f
6:50 6ft 8s 6s 20 25 mph 1021.1mb 61f 61f
5:50 5.5ft 8s 6s 20 22 mph 1021.2mb 61f 61f
4:50 5.5ft 8s 5s 18 22 mph 1021.6mb 61f 61f
3:50 5ft 8s 6s 18 22 mph 1021.6mb 62f 61f
2:50 6ft 8s 5s 18 20 mph 1021.8mb 60f 60f
1:50 6ft 8s 5s 18 20 mph 1022mb 60f 60f
12:50 5.5ft 7s 6s 16 20 mph 1022.2mb 60f 60f
11:50 6ft 8s 6s 16 18 mph 1022.4mb 60f 61f
10:50 5.5ft 8s 5s 9 11 mph 1022.2mb 59f 61f
9:50 6ft 7s 6s 13 16 mph 1021.8mb 60f 61f
8:50 5ft 8s 6s 16 18 mph 1021.5mb 60f 60f
7:50 6ft 8s 6s 13 18 mph 1021.5mb 60f 60f
6:50 5ft 6s 5s 13 16 mph 1021.3mb 60f 60f
5:50 5ft 7s 5s 13 18 mph 1020.9mb 60f 60f
4:50 5ft 8s 5s 16 20 mph 1020.8mb 60f 60f
3:50 5ft 8s 5s 16 20 mph 1020.7mb 60f 61f
2:50 5ft 8s 5s 16 22 mph 1020.9mb 60f 60f
1:50 5ft 7s 5s 16 18 mph 1021.1mb 61f 61f
12:50 5.5ft 7s 5s 18 22 mph 1021.4mb 62f 61f
mar. 07/26 11:50 5.5ft 7s 5s 18 22 mph 1022mb 61f 61f
10:50 5.5ft 8s 5s 20 22 mph 1021.9mb 60f 60f
9:50 6ft 7s 5s 18 22 mph 1021.8mb 60f 60f
8:50 6ft 10s 6s 20 25 mph 1021.7mb 60f 60f
7:50 6ft 8s 6s 18 22 mph 1021.7mb 60f 60f
6:50 5ft 8s 6s 18 20 mph 1021.9mb 60f 60f
5:50 5.5ft 10s 6s 16 20 mph 1022mb 60f 61f
4:50 5.5ft 8s 6s 16 18 mph 1022.7mb 60f 60f
3:50 5ft 10s 6s 16 18 mph 1022.7mb 60f 61f
2:50 5.5ft 9s 6s 16 18 mph 1023.1mb 60f 59f
1:50 5ft 10s 6s 13 16 mph 1023.4mb 61f 61f
12:50 5ft 10s 6s 11 13 mph 1023.4mb 61f 61f
11:50 5ft 10s 6s 13 16 mph 1023.3mb 62f 62f
10:50 5.5ft 9s 6s 13 16 mph 1023.3mb 62f 61f
9:50 5ft 10s 6s 13 18 mph 1023.4mb 62f 62f
8:50 5.5ft 10s 6s 13 18 mph 1023.2mb 62f 61f
7:50 5.5ft 11s 6s 13 18 mph 1022.9mb 62f 61f
6:50 6ft 11s 6s 16 18 mph 1022.4mb 62f 61f
5:50 5.5ft 11s 6s 16 20 mph 1022.2mb 62f 61f
4:50 6ft 10s 6s 13 18 mph 1021.9mb 62f 61f
3:50 5.5ft 10s 6s 13 20 mph 1021.9mb 62f 61f
2:50 5.5ft 10s 6s 13 16 mph 1021.9mb 62f 60f
1:50 6ft 11s 6s 13 16 mph 1021.9mb 63f 60f
12:50 5.5ft 11s 6s 13 16 mph 1022mb 63f 60f
lun. 07/25 11:50 6ft 10s 6s 16 20 mph 1021.7mb 63f 60f
10:50 6ft 10s 6s 16 20 mph 1021.8mb 62f 60f
9:50 6ft 10s 6s 18 20 mph 1021.8mb 62f 61f
8:50 6.5ft 10s 6s 18 22 mph 1021mb 62f 61f
7:50 6ft 11s 6s 16 18 mph 1020.9mb 62f 61f
6:50 6ft 11s 6s 16 20 mph 1020.7mb 62f 61f
5:50 5ft 11s 6s 16 18 mph 1020.7mb 62f 62f
4:50 5.5ft 9s 6s 13 16 mph 1020.9mb 62f 62f
3:50 5ft 9s 6s 16 18 mph 1020.9mb 62f 62f
2:50 5ft 10s 6s 13 18 mph 1021.1mb 62f 62f
1:50 4.5ft 8s 6s 13 18 mph 1021mb 62f 62f
12:50 4.5ft 8s 6s 13 16 mph 1021mb 62f 61f
10:50 4.5ft 8s 5s 13 16 mph 1020.8mb 63f 62f
9:50 4.5ft 8s 5s 11 13 mph 1020.6mb 63f 61f
8:50 4ft 6s 5s 11 13 mph 1020.4mb 63f 61f
7:50 4.5ft 5s 5s 11 13 mph 1020.1mb 64f 61f
6:50 4.5ft 6s 5s 13 16 mph 1019.7mb 64f 61f
5:50 4.5ft 6s 5s 13 18 mph 1019.4mb 64f 61f
4:50 4.5ft 5s 5s 13 18 mph 1019.1mb 64f 61f
3:50 5ft 6s 5s 16 18 mph 1019mb 64f 61f
2:50 4.5ft 7s 5s 16 20 mph 1018.8mb 64f 61f
1:50 4.5ft 7s 5s 16 20 mph 1018.7mb 64f 62f
12:50 4.5ft 5s 5s 16 18 mph 1018.8mb 64f 62f
dim. 07/24 11:50 5ft 5s 5s 16 20 mph 1018.9mb 64f 62f
10:50 5ft 5s 5s 18 22 mph 1019.1mb 64f 62f
9:50 5ft 5s 5s 20 22 mph 1018.6mb 64f 62f
8:50 4.5ft 5s 5s 22 25 mph 1018.2mb 64f 62f
7:50 5ft 5s 5s 20 25 mph 1018.4mb 64f 62f
6:50 5ft 5s 5s 25 27 mph 1017.9mb 63f 62f
5:50 4.5ft 5s 4s 25 29 mph 1018mb 63f 63f
4:50 4.5ft 5s 4s 22 27 mph 1018.7mb 63f 62f
3:50 4.5ft 4s 4s 22 27 mph 1019.1mb 63f 62f
2:50 4ft 5s 4s 22 27 mph 1019.6mb 64f 62f